sensor_id;sensor_type;location;lat;lon;timestamp;temperature;humidity
25718;DHT22;13574;52.040;5.692;2023-04-15T00:00:33;12.10;95.60
25718;DHT22;13574;52.040;5.692;2023-04-15T00:02:58;12.20;95.70
25718;DHT22;13574;52.040;5.692;2023-04-15T00:05:28;12.00;95.70
25718;DHT22;13574;52.040;5.692;2023-04-15T00:07:53;11.80;96.30
25718;DHT22;13574;52.040;5.692;2023-04-15T00:10:19;11.90;95.90
25718;DHT22;13574;52.040;5.692;2023-04-15T00:12:44;11.70;96.40
25718;DHT22;13574;52.040;5.692;2023-04-15T00:15:10;11.70;96.70
25718;DHT22;13574;52.040;5.692;2023-04-15T00:17:36;11.70;96.70
25718;DHT22;13574;52.040;5.692;2023-04-15T00:20:04;11.70;96.60
25718;DHT22;13574;52.040;5.692;2023-04-15T00:22:30;11.80;96.20
25718;DHT22;13574;52.040;5.692;2023-04-15T00:24:56;11.70;96.40
25718;DHT22;13574;52.040;5.692;2023-04-15T00:27:22;11.40;96.70
25718;DHT22;13574;52.040;5.692;2023-04-15T00:29:47;11.40;96.80
25718;DHT22;13574;52.040;5.692;2023-04-15T00:32:13;11.50;96.60
25718;DHT22;13574;52.040;5.692;2023-04-15T00:34:38;11.60;96.50
25718;DHT22;13574;52.040;5.692;2023-04-15T00:37:04;11.60;96.60
25718;DHT22;13574;52.040;5.692;2023-04-15T00:39:29;11.60;96.70
25718;DHT22;13574;52.040;5.692;2023-04-15T00:41:55;11.70;96.60
25718;DHT22;13574;52.040;5.692;2023-04-15T00:44:21;11.70;96.60
25718;DHT22;13574;52.040;5.692;2023-04-15T00:46:47;11.50;96.70
25718;DHT22;13574;52.040;5.692;2023-04-15T00:49:15;11.40;96.90
25718;DHT22;13574;52.040;5.692;2023-04-15T00:51:41;11.40;96.90
25718;DHT22;13574;52.040;5.692;2023-04-15T00:54:07;11.50;96.80
25718;DHT22;13574;52.040;5.692;2023-04-15T00:56:37;11.50;96.90
25718;DHT22;13574;52.040;5.692;2023-04-15T00:59:05;11.40;97.10
25718;DHT22;13574;52.040;5.692;2023-04-15T01:01:33;11.40;97.10
25718;DHT22;13574;52.040;5.692;2023-04-15T01:03:59;11.40;97.00
25718;DHT22;13574;52.040;5.692;2023-04-15T01:06:25;11.30;97.30
25718;DHT22;13574;52.040;5.692;2023-04-15T01:08:52;11.40;97.30
25718;DHT22;13574;52.040;5.692;2023-04-15T01:11:18;11.40;97.30
25718;DHT22;13574;52.040;5.692;2023-04-15T01:13:44;11.20;97.40
25718;DHT22;13574;52.040;5.692;2023-04-15T01:16:10;11.30;97.60
25718;DHT22;13574;52.040;5.692;2023-04-15T01:18:37;11.30;97.70
25718;DHT22;13574;52.040;5.692;2023-04-15T01:21:03;11.40;97.80
25718;DHT22;13574;52.040;5.692;2023-04-15T01:23:29;11.50;97.50
25718;DHT22;13574;52.040;5.692;2023-04-15T01:25:55;11.60;97.40
25718;DHT22;13574;52.040;5.692;2023-04-15T01:28:20;11.60;97.50
25718;DHT22;13574;52.040;5.692;2023-04-15T01:30:46;11.40;97.70
25718;DHT22;13574;52.040;5.692;2023-04-15T01:33:12;11.30;97.80
25718;DHT22;13574;52.040;5.692;2023-04-15T01:35:37;11.30;97.70
25718;DHT22;13574;52.040;5.692;2023-04-15T01:38:06;11.40;97.70
25718;DHT22;13574;52.040;5.692;2023-04-15T01:40:32;11.40;97.60
25718;DHT22;13574;52.040;5.692;2023-04-15T01:42:58;11.20;98.00
25718;DHT22;13574;52.040;5.692;2023-04-15T01:45:24;11.20;98.00
25718;DHT22;13574;52.040;5.692;2023-04-15T01:47:50;11.10;98.10
25718;DHT22;13574;52.040;5.692;2023-04-15T01:50:15;11.20;98.20
25718;DHT22;13574;52.040;5.692;2023-04-15T01:52:41;11.20;98.00
25718;DHT22;13574;52.040;5.692;2023-04-15T01:55:07;11.20;98.10
25718;DHT22;13574;52.040;5.692;2023-04-15T01:57:32;10.90;98.40
25718;DHT22;13574;52.040;5.692;2023-04-15T01:59:58;10.90;98.50
25718;DHT22;13574;52.040;5.692;2023-04-15T02:02:23;11.30;98.30
25718;DHT22;13574;52.040;5.692;2023-04-15T02:04:49;11.10;98.10
25718;DHT22;13574;52.040;5.692;2023-04-15T02:07:14;11.00;98.30
25718;DHT22;13574;52.040;5.692;2023-04-15T02:09:40;10.90;98.60
25718;DHT22;13574;52.040;5.692;2023-04-15T02:12:06;11.00;98.60
25718;DHT22;13574;52.040;5.692;2023-04-15T02:14:31;10.90;98.70
25718;DHT22;13574;52.040;5.692;2023-04-15T02:16:57;10.80;98.90
25718;DHT22;13574;52.040;5.692;2023-04-15T02:19:22;10.50;99.60
25718;DHT22;13574;52.040;5.692;2023-04-15T02:21:48;10.70;99.50
25718;DHT22;13574;52.040;5.692;2023-04-15T02:24:13;10.70;99.40
25718;DHT22;13574;52.040;5.692;2023-04-15T02:26:39;10.70;99.20
25718;DHT22;13574;52.040;5.692;2023-04-15T02:29:04;10.80;99.10
25718;DHT22;13574;52.040;5.692;2023-04-15T02:31:30;10.80;99.20
25718;DHT22;13574;52.040;5.692;2023-04-15T02:34:01;10.80;99.20
25718;DHT22;13574;52.040;5.692;2023-04-15T02:36:29;10.80;99.10
25718;DHT22;13574;52.040;5.692;2023-04-15T02:38:55;10.60;99.40
25718;DHT22;13574;52.040;5.692;2023-04-15T02:41:21;10.60;99.60
25718;DHT22;13574;52.040;5.692;2023-04-15T02:43:51;10.60;99.70
25718;DHT22;13574;52.040;5.692;2023-04-15T02:46:17;10.60;99.60
25718;DHT22;13574;52.040;5.692;2023-04-15T02:48:42;10.60;99.80
25718;DHT22;13574;52.040;5.692;2023-04-15T02:51:15;10.60;99.80
25718;DHT22;13574;52.040;5.692;2023-04-15T02:53:41;10.70;99.70
25718;DHT22;13574;52.040;5.692;2023-04-15T02:56:06;10.70;99.70
25718;DHT22;13574;52.040;5.692;2023-04-15T02:58:33;10.60;99.90
25718;DHT22;13574;52.040;5.692;2023-04-15T03:00:59;10.70;99.80
25718;DHT22;13574;52.040;5.692;2023-04-15T03:03:25;10.50;99.90
25718;DHT22;13574;52.040;5.692;2023-04-15T03:05:52;10.40;99.90
25718;DHT22;13574;52.040;5.692;2023-04-15T03:08:17;10.30;99.90
25718;DHT22;13574;52.040;5.692;2023-04-15T03:10:43;10.40;99.90
25718;DHT22;13574;52.040;5.692;2023-04-15T03:13:08;10.30;99.90
25718;DHT22;13574;52.040;5.692;2023-04-15T03:15:34;10.40;99.90
25718;DHT22;13574;52.040;5.692;2023-04-15T03:18:00;10.60;99.90
25718;DHT22;13574;52.040;5.692;2023-04-15T03:20:25;10.60;99.90
25718;DHT22;13574;52.040;5.692;2023-04-15T03:22:51;10.70;99.90
25718;DHT22;13574;52.040;5.692;2023-04-15T03:25:17;10.70;99.90
25718;DHT22;13574;52.040;5.692;2023-04-15T03:27:42;10.60;99.90
25718;DHT22;13574;52.040;5.692;2023-04-15T03:30:08;10.60;99.90
25718;DHT22;13574;52.040;5.692;2023-04-15T03:32:34;10.60;99.90
25718;DHT22;13574;52.040;5.692;2023-04-15T03:34:59;10.60;99.90
25718;DHT22;13574;52.040;5.692;2023-04-15T03:37:25;10.60;99.90
25718;DHT22;13574;52.040;5.692;2023-04-15T03:39:50;10.50;99.90
25718;DHT22;13574;52.040;5.692;2023-04-15T03:42:16;10.60;99.90
25718;DHT22;13574;52.040;5.692;2023-04-15T03:44:41;10.40;99.90
25718;DHT22;13574;52.040;5.692;2023-04-15T03:47:07;10.30;99.90
25718;DHT22;13574;52.040;5.692;2023-04-15T03:49:32;10.30;99.90
25718;DHT22;13574;52.040;5.692;2023-04-15T03:51:58;10.40;99.90
25718;DHT22;13574;52.040;5.692;2023-04-15T03:54:24;10.10;99.90
25718;DHT22;13574;52.040;5.692;2023-04-15T03:56:49;10.30;99.90
25718;DHT22;13574;52.040;5.692;2023-04-15T03:59:15;10.20;99.90
25718;DHT22;13574;52.040;5.692;2023-04-15T04:01:40;10.30;99.90
25718;DHT22;13574;52.040;5.692;2023-04-15T04:04:06;10.20;99.90
25718;DHT22;13574;52.040;5.692;2023-04-15T04:06:32;9.80;99.90
25718;DHT22;13574;52.040;5.692;2023-04-15T04:08:57;9.80;99.90
25718;DHT22;13574;52.040;5.692;2023-04-15T04:11:23;9.90;99.90
25718;DHT22;13574;52.040;5.692;2023-04-15T04:13:48;9.80;99.90
25718;DHT22;13574;52.040;5.692;2023-04-15T04:16:14;9.80;99.90
25718;DHT22;13574;52.040;5.692;2023-04-15T04:18:39;9.70;99.90
25718;DHT22;13574;52.040;5.692;2023-04-15T04:21:05;9.90;99.90
25718;DHT22;13574;52.040;5.692;2023-04-15T04:23:31;9.90;99.90
25718;DHT22;13574;52.040;5.692;2023-04-15T04:25:57;9.90;99.90
25718;DHT22;13574;52.040;5.692;2023-04-15T04:28:22;9.80;99.90
25718;DHT22;13574;52.040;5.692;2023-04-15T04:30:48;9.80;99.90
25718;DHT22;13574;52.040;5.692;2023-04-15T04:33:13;10.00;99.90
25718;DHT22;13574;52.040;5.692;2023-04-15T04:35:39;9.90;99.90
25718;DHT22;13574;52.040;5.692;2023-04-15T04:38:04;9.90;99.90
25718;DHT22;13574;52.040;5.692;2023-04-15T04:40:30;9.90;99.90
25718;DHT22;13574;52.040;5.692;2023-04-15T04:42:55;10.20;99.90
25718;DHT22;13574;52.040;5.692;2023-04-15T04:45:21;10.10;99.90
25718;DHT22;13574;52.040;5.692;2023-04-15T04:47:47;9.90;99.90
25718;DHT22;13574;52.040;5.692;2023-04-15T04:50:13;9.90;99.90
25718;DHT22;13574;52.040;5.692;2023-04-15T04:52:38;10.00;99.90
25718;DHT22;13574;52.040;5.692;2023-04-15T04:55:04;10.10;99.90
25718;DHT22;13574;52.040;5.692;2023-04-15T04:57:30;10.20;99.90
25718;DHT22;13574;52.040;5.692;2023-04-15T04:59:55;10.30;99.90
25718;DHT22;13574;52.040;5.692;2023-04-15T05:02:24;10.40;99.90
25718;DHT22;13574;52.040;5.692;2023-04-15T05:04:51;10.40;99.90
25718;DHT22;13574;52.040;5.692;2023-04-15T05:07:18;10.40;99.90
25718;DHT22;13574;52.040;5.692;2023-04-15T05:09:45;10.20;99.90
25718;DHT22;13574;52.040;5.692;2023-04-15T05:12:10;10.30;99.90
25718;DHT22;13574;52.040;5.692;2023-04-15T05:14:39;10.20;99.90
25718;DHT22;13574;52.040;5.692;2023-04-15T05:17:05;10.10;99.90
25718;DHT22;13574;52.040;5.692;2023-04-15T05:19:30;10.30;99.90
25718;DHT22;13574;52.040;5.692;2023-04-15T05:21:56;10.40;99.90
25718;DHT22;13574;52.040;5.692;2023-04-15T05:24:21;10.70;99.90
25718;DHT22;13574;52.040;5.692;2023-04-15T05:26:47;10.70;99.90
25718;DHT22;13574;52.040;5.692;2023-04-15T05:29:12;10.70;99.90
25718;DHT22;13574;52.040;5.692;2023-04-15T05:31:38;10.40;99.90
25718;DHT22;13574;52.040;5.692;2023-04-15T05:34:03;10.30;99.90
25718;DHT22;13574;52.040;5.692;2023-04-15T05:36:29;10.20;99.90
25718;DHT22;13574;52.040;5.692;2023-04-15T05:38:55;10.50;99.90
25718;DHT22;13574;52.040;5.692;2023-04-15T05:41:21;10.30;99.90
25718;DHT22;13574;52.040;5.692;2023-04-15T05:43:46;10.40;99.90
25718;DHT22;13574;52.040;5.692;2023-04-15T05:46:12;10.60;99.90
25718;DHT22;13574;52.040;5.692;2023-04-15T05:48:37;10.40;99.90
25718;DHT22;13574;52.040;5.692;2023-04-15T05:51:03;10.60;99.90
25718;DHT22;13574;52.040;5.692;2023-04-15T05:53:28;10.70;99.90
25718;DHT22;13574;52.040;5.692;2023-04-15T05:55:54;10.90;99.90
25718;DHT22;13574;52.040;5.692;2023-04-15T05:58:20;11.10;99.90
25718;DHT22;13574;52.040;5.692;2023-04-15T06:00:45;11.40;99.90
25718;DHT22;13574;52.040;5.692;2023-04-15T06:03:11;11.40;99.90
25718;DHT22;13574;52.040;5.692;2023-04-15T06:05:37;11.40;99.90
25718;DHT22;13574;52.040;5.692;2023-04-15T06:08:03;11.70;99.90
25718;DHT22;13574;52.040;5.692;2023-04-15T06:10:28;11.70;99.90
25718;DHT22;13574;52.040;5.692;2023-04-15T06:12:55;11.70;99.90
25718;DHT22;13574;52.040;5.692;2023-04-15T06:15:20;11.80;99.90
25718;DHT22;13574;52.040;5.692;2023-04-15T06:17:46;11.90;99.90
25718;DHT22;13574;52.040;5.692;2023-04-15T06:20:11;11.80;99.90
25718;DHT22;13574;52.040;5.692;2023-04-15T06:22:37;11.50;99.90
25718;DHT22;13574;52.040;5.692;2023-04-15T06:25:06;11.50;99.90
25718;DHT22;13574;52.040;5.692;2023-04-15T06:27:32;11.60;99.90
25718;DHT22;13574;52.040;5.692;2023-04-15T06:29:58;12.00;99.90
25718;DHT22;13574;52.040;5.692;2023-04-15T06:32:23;11.80;99.90
25718;DHT22;13574;52.040;5.692;2023-04-15T06:34:49;12.20;99.90
25718;DHT22;13574;52.040;5.692;2023-04-15T06:37:15;12.50;99.90
25718;DHT22;13574;52.040;5.692;2023-04-15T06:39:41;12.70;99.90
25718;DHT22;13574;52.040;5.692;2023-04-15T06:42:07;12.80;99.90
25718;DHT22;13574;52.040;5.692;2023-04-15T06:44:33;12.40;99.90
25718;DHT22;13574;52.040;5.692;2023-04-15T06:46:59;12.60;99.90
25718;DHT22;13574;52.040;5.692;2023-04-15T06:49:24;12.80;99.90
25718;DHT22;13574;52.040;5.692;2023-04-15T06:51:50;12.50;99.90
25718;DHT22;13574;52.040;5.692;2023-04-15T06:54:17;12.70;99.90
25718;DHT22;13574;52.040;5.692;2023-04-15T06:56:42;12.70;99.90
25718;DHT22;13574;52.040;5.692;2023-04-15T06:59:08;12.90;99.90
25718;DHT22;13574;52.040;5.692;2023-04-15T07:01:33;12.70;99.90
25718;DHT22;13574;52.040;5.692;2023-04-15T07:03:59;12.60;99.90
25718;DHT22;13574;52.040;5.692;2023-04-15T07:06:25;12.80;99.90
25718;DHT22;13574;52.040;5.692;2023-04-15T07:08:51;13.00;99.90
25718;DHT22;13574;52.040;5.692;2023-04-15T07:11:17;13.20;99.90
25718;DHT22;13574;52.040;5.692;2023-04-15T07:13:43;13.70;99.90
25718;DHT22;13574;52.040;5.692;2023-04-15T07:16:08;14.00;99.90
25718;DHT22;13574;52.040;5.692;2023-04-15T07:18:34;14.00;99.90
25718;DHT22;13574;52.040;5.692;2023-04-15T07:21:07;13.90;99.90
25718;DHT22;13574;52.040;5.692;2023-04-15T07:23:35;13.90;99.60
25718;DHT22;13574;52.040;5.692;2023-04-15T07:26:01;13.80;99.80
25718;DHT22;13574;52.040;5.692;2023-04-15T07:28:27;13.80;99.90
25718;DHT22;13574;52.040;5.692;2023-04-15T07:30:52;14.10;99.30
25718;DHT22;13574;52.040;5.692;2023-04-15T07:33:18;13.10;99.90
25718;DHT22;13574;52.040;5.692;2023-04-15T07:35:43;13.00;99.90
25718;DHT22;13574;52.040;5.692;2023-04-15T07:38:09;12.70;99.90
25718;DHT22;13574;52.040;5.692;2023-04-15T07:40:37;12.80;99.90
25718;DHT22;13574;52.040;5.692;2023-04-15T07:43:03;13.00;99.90
25718;DHT22;13574;52.040;5.692;2023-04-15T07:45:30;13.60;99.90
25718;DHT22;13574;52.040;5.692;2023-04-15T07:47:55;13.90;99.40
25718;DHT22;13574;52.040;5.692;2023-04-15T07:50:21;13.80;99.20
25718;DHT22;13574;52.040;5.692;2023-04-15T07:52:47;13.50;99.60
25718;DHT22;13574;52.040;5.692;2023-04-15T07:55:13;13.40;99.70
25718;DHT22;13574;52.040;5.692;2023-04-15T07:57:39;13.70;99.60
25718;DHT22;13574;52.040;5.692;2023-04-15T08:00:05;14.00;99.60
25718;DHT22;13574;52.040;5.692;2023-04-15T08:02:31;14.20;99.10
25718;DHT22;13574;52.040;5.692;2023-04-15T08:04:57;14.40;98.60
25718;DHT22;13574;52.040;5.692;2023-04-15T08:07:24;14.40;98.60
25718;DHT22;13574;52.040;5.692;2023-04-15T08:09:49;13.80;99.40
25718;DHT22;13574;52.040;5.692;2023-04-15T08:12:15;14.30;99.00
25718;DHT22;13574;52.040;5.692;2023-04-15T08:14:41;14.30;98.90
25718;DHT22;13574;52.040;5.692;2023-04-15T08:17:06;14.70;98.50
25718;DHT22;13574;52.040;5.692;2023-04-15T08:19:32;15.10;98.50
25718;DHT22;13574;52.040;5.692;2023-04-15T08:21:58;15.80;97.20
25718;DHT22;13574;52.040;5.692;2023-04-15T08:24:23;15.80;97.30
25718;DHT22;13574;52.040;5.692;2023-04-15T08:26:50;16.20;97.00
25718;DHT22;13574;52.040;5.692;2023-04-15T08:29:16;16.50;96.10
25718;DHT22;13574;52.040;5.692;2023-04-15T08:31:42;16.00;96.20
25718;DHT22;13574;52.040;5.692;2023-04-15T08:34:07;16.10;96.10
25718;DHT22;13574;52.040;5.692;2023-04-15T08:36:33;15.40;97.50
25718;DHT22;13574;52.040;5.692;2023-04-15T08:38:59;15.80;96.30
25718;DHT22;13574;52.040;5.692;2023-04-15T08:41:26;15.70;96.70
25718;DHT22;13574;52.040;5.692;2023-04-15T08:46:19;15.90;96.20
25718;DHT22;13574;52.040;5.692;2023-04-15T08:48:45;15.50;96.20
25718;DHT22;13574;52.040;5.692;2023-04-15T08:51:11;15.50;96.40
25718;DHT22;13574;52.040;5.692;2023-04-15T08:53:41;14.90;97.30
25718;DHT22;13574;52.040;5.692;2023-04-15T08:56:07;15.30;97.50
25718;DHT22;13574;52.040;5.692;2023-04-15T08:58:37;15.40;97.10
25718;DHT22;13574;52.040;5.692;2023-04-15T09:01:02;15.70;96.70
25718;DHT22;13574;52.040;5.692;2023-04-15T09:03:28;15.50;96.60
25718;DHT22;13574;52.040;5.692;2023-04-15T09:05:54;15.20;97.20
25718;DHT22;13574;52.040;5.692;2023-04-15T09:08:20;15.60;97.00
25718;DHT22;13574;52.040;5.692;2023-04-15T09:10:46;15.90;96.60
25718;DHT22;13574;52.040;5.692;2023-04-15T09:13:11;16.00;96.50
25718;DHT22;13574;52.040;5.692;2023-04-15T09:15:37;16.00;96.50
25718;DHT22;13574;52.040;5.692;2023-04-15T09:18:03;15.80;96.50
25718;DHT22;13574;52.040;5.692;2023-04-15T09:20:29;15.40;97.00
25718;DHT22;13574;52.040;5.692;2023-04-15T09:22:54;15.10;96.40
25718;DHT22;13574;52.040;5.692;2023-04-15T09:30:14;16.10;96.20
25718;DHT22;13574;52.040;5.692;2023-04-15T09:32:50;15.40;95.40
25718;DHT22;13574;52.040;5.692;2023-04-15T09:35:16;14.70;96.10
25718;DHT22;13574;52.040;5.692;2023-04-15T09:37:42;14.50;97.00
25718;DHT22;13574;52.040;5.692;2023-04-15T09:40:07;15.10;96.90
25718;DHT22;13574;52.040;5.692;2023-04-15T09:42:34;15.30;96.10
25718;DHT22;13574;52.040;5.692;2023-04-15T09:45:09;16.10;95.80
25718;DHT22;13574;52.040;5.692;2023-04-15T09:47:35;16.00;95.50
25718;DHT22;13574;52.040;5.692;2023-04-15T09:50:01;15.60;96.10
25718;DHT22;13574;52.040;5.692;2023-04-15T09:52:27;14.90;97.10
25718;DHT22;13574;52.040;5.692;2023-04-15T09:54:53;15.20;96.90
25718;DHT22;13574;52.040;5.692;2023-04-15T09:57:20;15.50;96.90
25718;DHT22;13574;52.040;5.692;2023-04-15T09:59:46;15.50;96.60
25718;DHT22;13574;52.040;5.692;2023-04-15T10:02:12;15.20;97.40
25718;DHT22;13574;52.040;5.692;2023-04-15T10:04:39;15.50;96.30
25718;DHT22;13574;52.040;5.692;2023-04-15T10:07:05;15.30;96.70
25718;DHT22;13574;52.040;5.692;2023-04-15T10:09:31;15.90;96.50
25718;DHT22;13574;52.040;5.692;2023-04-15T10:11:58;15.50;96.50
25718;DHT22;13574;52.040;5.692;2023-04-15T10:14:25;15.50;96.70
25718;DHT22;13574;52.040;5.692;2023-04-15T10:16:52;15.60;96.90
25718;DHT22;13574;52.040;5.692;2023-04-15T10:19:20;15.50;96.80
25718;DHT22;13574;52.040;5.692;2023-04-15T10:21:49;15.40;96.90
25718;DHT22;13574;52.040;5.692;2023-04-15T10:24:15;15.50;97.00
25718;DHT22;13574;52.040;5.692;2023-04-15T10:26:40;15.80;97.20
25718;DHT22;13574;52.040;5.692;2023-04-15T10:29:06;15.50;96.30
25718;DHT22;13574;52.040;5.692;2023-04-15T10:31:33;14.90;97.30
25718;DHT22;13574;52.040;5.692;2023-04-15T10:34:00;14.70;97.70
25718;DHT22;13574;52.040;5.692;2023-04-15T10:36:29;14.50;97.60
25718;DHT22;13574;52.040;5.692;2023-04-15T10:38:55;15.00;97.80
25718;DHT22;13574;52.040;5.692;2023-04-15T10:41:21;15.50;97.40
25718;DHT22;13574;52.040;5.692;2023-04-15T10:43:54;15.60;97.30
25718;DHT22;13574;52.040;5.692;2023-04-15T10:46:24;15.60;97.00
25718;DHT22;13574;52.040;5.692;2023-04-15T10:48:59;15.80;97.20
25718;DHT22;13574;52.040;5.692;2023-04-15T10:51:30;16.00;97.20
25718;DHT22;13574;52.040;5.692;2023-04-15T10:53:59;16.10;96.40
25718;DHT22;13574;52.040;5.692;2023-04-15T10:56:27;16.00;96.30
25718;DHT22;13574;52.040;5.692;2023-04-15T10:58:52;16.00;96.30
25718;DHT22;13574;52.040;5.692;2023-04-15T11:01:18;16.10;95.90
25718;DHT22;13574;52.040;5.692;2023-04-15T11:03:44;15.90;95.80
25718;DHT22;13574;52.040;5.692;2023-04-15T11:06:10;16.00;96.20
25718;DHT22;13574;52.040;5.692;2023-04-15T11:11:20;16.70;95.80
25718;DHT22;13574;52.040;5.692;2023-04-15T11:13:46;17.50;95.30
25718;DHT22;13574;52.040;5.692;2023-04-15T11:16:12;17.60;94.50
25718;DHT22;13574;52.040;5.692;2023-04-15T11:18:38;16.90;95.80
25718;DHT22;13574;52.040;5.692;2023-04-15T11:21:04;16.80;96.00
25718;DHT22;13574;52.040;5.692;2023-04-15T11:23:37;17.30;95.90
25718;DHT22;13574;52.040;5.692;2023-04-15T11:26:04;16.90;95.70
25718;DHT22;13574;52.040;5.692;2023-04-15T11:28:31;16.90;95.30
25718;DHT22;13574;52.040;5.692;2023-04-15T11:30:57;16.00;96.40
25718;DHT22;13574;52.040;5.692;2023-04-15T11:33:23;16.40;96.20
25718;DHT22;13574;52.040;5.692;2023-04-15T11:35:49;16.50;95.20
25718;DHT22;13574;52.040;5.692;2023-04-15T11:38:15;16.30;95.80
25718;DHT22;13574;52.040;5.692;2023-04-15T11:40:41;16.30;95.90
25718;DHT22;13574;52.040;5.692;2023-04-15T11:43:07;15.90;96.00
25718;DHT22;13574;52.040;5.692;2023-04-15T11:45:34;16.00;95.80
25718;DHT22;13574;52.040;5.692;2023-04-15T11:50:32;16.00;95.80
25718;DHT22;13574;52.040;5.692;2023-04-15T11:52:58;15.60;97.10
25718;DHT22;13574;52.040;5.692;2023-04-15T11:55:25;16.10;96.40
25718;DHT22;13574;52.040;5.692;2023-04-15T12:00:35;15.40;96.40
25718;DHT22;13574;52.040;5.692;2023-04-15T12:03:11;15.60;96.80
25718;DHT22;13574;52.040;5.692;2023-04-15T12:05:44;16.10;97.00
25718;DHT22;13574;52.040;5.692;2023-04-15T12:08:22;16.50;95.50
25718;DHT22;13574;52.040;5.692;2023-04-15T12:10:48;16.30;95.70
25718;DHT22;13574;52.040;5.692;2023-04-15T12:13:13;16.70;95.40
25718;DHT22;13574;52.040;5.692;2023-04-15T12:15:39;16.50;95.40
25718;DHT22;13574;52.040;5.692;2023-04-15T12:18:04;16.50;95.50
25718;DHT22;13574;52.040;5.692;2023-04-15T12:20:30;16.60;94.90
25718;DHT22;13574;52.040;5.692;2023-04-15T12:23:04;16.90;95.50
25718;DHT22;13574;52.040;5.692;2023-04-15T12:25:33;16.90;95.00
25718;DHT22;13574;52.040;5.692;2023-04-15T12:27:59;16.90;95.20
25718;DHT22;13574;52.040;5.692;2023-04-15T12:30:24;16.60;96.00
25718;DHT22;13574;52.040;5.692;2023-04-15T12:32:50;16.30;96.40
25718;DHT22;13574;52.040;5.692;2023-04-15T12:35:16;16.10;96.40
25718;DHT22;13574;52.040;5.692;2023-04-15T12:37:43;16.10;96.60
25718;DHT22;13574;52.040;5.692;2023-04-15T12:40:09;16.00;96.20
25718;DHT22;13574;52.040;5.692;2023-04-15T12:42:34;16.20;96.10
25718;DHT22;13574;52.040;5.692;2023-04-15T12:45:00;16.40;95.70
25718;DHT22;13574;52.040;5.692;2023-04-15T12:47:26;16.70;95.20
25718;DHT22;13574;52.040;5.692;2023-04-15T12:49:52;16.50;95.90
25718;DHT22;13574;52.040;5.692;2023-04-15T12:52:17;16.50;95.70
25718;DHT22;13574;52.040;5.692;2023-04-15T12:54:43;16.70;95.40
25718;DHT22;13574;52.040;5.692;2023-04-15T12:57:08;16.30;95.70
25718;DHT22;13574;52.040;5.692;2023-04-15T12:59:34;16.20;95.90
25718;DHT22;13574;52.040;5.692;2023-04-15T13:02:00;16.10;96.00
25718;DHT22;13574;52.040;5.692;2023-04-15T13:04:26;16.00;96.00
25718;DHT22;13574;52.040;5.692;2023-04-15T13:06:54;15.80;96.40
25718;DHT22;13574;52.040;5.692;2023-04-15T13:09:20;15.70;96.40
25718;DHT22;13574;52.040;5.692;2023-04-15T13:11:46;15.80;96.80
25718;DHT22;13574;52.040;5.692;2023-04-15T13:14:11;16.20;96.40
25718;DHT22;13574;52.040;5.692;2023-04-15T13:16:37;15.90;96.10
25718;DHT22;13574;52.040;5.692;2023-04-15T13:19:03;15.80;96.90
25718;DHT22;13574;52.040;5.692;2023-04-15T13:21:28;16.20;96.70
25718;DHT22;13574;52.040;5.692;2023-04-15T13:23:55;16.50;96.00
25718;DHT22;13574;52.040;5.692;2023-04-15T13:26:21;16.90;95.20
25718;DHT22;13574;52.040;5.692;2023-04-15T13:28:46;17.00;94.90
25718;DHT22;13574;52.040;5.692;2023-04-15T13:31:12;16.40;95.60
25718;DHT22;13574;52.040;5.692;2023-04-15T13:33:37;16.50;96.10
25718;DHT22;13574;52.040;5.692;2023-04-15T13:36:03;16.50;95.70
25718;DHT22;13574;52.040;5.692;2023-04-15T13:38:28;16.00;96.30
25718;DHT22;13574;52.040;5.692;2023-04-15T13:40:54;16.40;96.10
25718;DHT22;13574;52.040;5.692;2023-04-15T13:43:19;16.40;96.10
25718;DHT22;13574;52.040;5.692;2023-04-15T13:45:46;16.10;96.20
25718;DHT22;13574;52.040;5.692;2023-04-15T13:48:11;16.00;96.20
25718;DHT22;13574;52.040;5.692;2023-04-15T13:50:37;16.20;96.00
25718;DHT22;13574;52.040;5.692;2023-04-15T13:53:02;16.20;96.20
25718;DHT22;13574;52.040;5.692;2023-04-15T13:55:28;16.10;96.60
25718;DHT22;13574;52.040;5.692;2023-04-15T13:57:53;16.00;96.80
25718;DHT22;13574;52.040;5.692;2023-04-15T14:00:19;15.70;97.00
25718;DHT22;13574;52.040;5.692;2023-04-15T14:02:45;15.80;96.90
25718;DHT22;13574;52.040;5.692;2023-04-15T14:05:11;15.90;97.00
25718;DHT22;13574;52.040;5.692;2023-04-15T14:07:36;15.70;97.40
25718;DHT22;13574;52.040;5.692;2023-04-15T14:10:02;15.90;97.50
25718;DHT22;13574;52.040;5.692;2023-04-15T14:12:28;15.60;97.60
25718;DHT22;13574;52.040;5.692;2023-04-15T14:14:53;15.70;97.80
25718;DHT22;13574;52.040;5.692;2023-04-15T14:17:19;15.30;97.90
25718;DHT22;13574;52.040;5.692;2023-04-15T14:19:44;15.30;98.20
25718;DHT22;13574;52.040;5.692;2023-04-15T14:22:10;14.80;98.50
25718;DHT22;13574;52.040;5.692;2023-04-15T14:24:35;14.80;98.60
25718;DHT22;13574;52.040;5.692;2023-04-15T14:27:01;15.10;98.50
25718;DHT22;13574;52.040;5.692;2023-04-15T14:29:27;14.70;98.70
25718;DHT22;13574;52.040;5.692;2023-04-15T14:31:53;14.70;98.80
25718;DHT22;13574;52.040;5.692;2023-04-15T14:34:19;14.80;99.10
25718;DHT22;13574;52.040;5.692;2023-04-15T14:36:49;14.70;99.20
25718;DHT22;13574;52.040;5.692;2023-04-15T14:39:15;14.50;99.60
25718;DHT22;13574;52.040;5.692;2023-04-15T14:41:40;14.50;99.90
25718;DHT22;13574;52.040;5.692;2023-04-15T14:44:06;14.90;99.60
25718;DHT22;13574;52.040;5.692;2023-04-15T14:46:33;15.00;99.50
25718;DHT22;13574;52.040;5.692;2023-04-15T14:48:59;14.60;99.60
25718;DHT22;13574;52.040;5.692;2023-04-15T14:51:24;14.60;99.60
25718;DHT22;13574;52.040;5.692;2023-04-15T14:53:51;14.60;99.20
25718;DHT22;13574;52.040;5.692;2023-04-15T14:56:16;14.60;99.70
25718;DHT22;13574;52.040;5.692;2023-04-15T14:58:42;14.70;99.50
25718;DHT22;13574;52.040;5.692;2023-04-15T15:01:07;15.00;99.20
25718;DHT22;13574;52.040;5.692;2023-04-15T15:03:33;14.60;99.90
25718;DHT22;13574;52.040;5.692;2023-04-15T15:05:58;14.10;99.90
25718;DHT22;13574;52.040;5.692;2023-04-15T15:08:24;14.10;99.90
25718;DHT22;13574;52.040;5.692;2023-04-15T15:10:50;14.00;99.90
25718;DHT22;13574;52.040;5.692;2023-04-15T15:13:16;14.40;99.90
25718;DHT22;13574;52.040;5.692;2023-04-15T15:15:42;14.60;99.90
25718;DHT22;13574;52.040;5.692;2023-04-15T15:18:08;14.50;99.90
25718;DHT22;13574;52.040;5.692;2023-04-15T15:20:34;14.30;99.90
25718;DHT22;13574;52.040;5.692;2023-04-15T15:23:00;13.80;99.90
25718;DHT22;13574;52.040;5.692;2023-04-15T15:25:25;13.40;99.90
25718;DHT22;13574;52.040;5.692;2023-04-15T15:27:51;13.90;99.90
25718;DHT22;13574;52.040;5.692;2023-04-15T15:30:16;13.80;99.90
25718;DHT22;13574;52.040;5.692;2023-04-15T15:32:42;13.60;99.90
25718;DHT22;13574;52.040;5.692;2023-04-15T15:35:08;13.60;99.90
25718;DHT22;13574;52.040;5.692;2023-04-15T15:37:34;13.70;99.90
25718;DHT22;13574;52.040;5.692;2023-04-15T15:39:59;13.70;99.90